Time;durP1;ratioP1;P1;durP2;ratioP2;P2;SDS_P1;SDS_P2;PMS_P1;PMS_P2;Temp;Humidity;BMP_temperature;BMP_pressure;BME280_temperature;BME280_humidity;BME280_pressure;Samples;Min_cycle;Max_cycle;Signal;HPM_P1;HPM_P2
2022/11/23 00:01:21;;;;;;;21.48;11.30;;;;;;;;;;6185049;23;20029;-33
2022/11/23 00:03:47;;;;;;;21.73;12.40;;;;;;;;;;6185063;23;20001;-33
2022/11/23 00:06:12;;;;;;;26.00;12.38;;;;;;;;;;6184978;23;20005;-33
2022/11/23 00:08:38;;;;;;;24.17;11.55;;;;;;;;;;6185222;23;19993;-33
2022/11/23 00:11:03;;;;;;;25.35;13.70;;;;;;;;;;6158770;23;19997;-33
2022/11/23 00:13:28;;;;;;;23.48;12.30;;;;;;;;;;6185040;23;19997;-34
2022/11/23 00:15:54;;;;;;;27.83;12.77;;;;;;;;;;6185173;23;20325;-33
2022/11/23 00:18:19;;;;;;;29.00;13.60;;;;;;;;;;6186215;23;19997;-33
2022/11/23 00:20:44;;;;;;;26.48;12.88;;;;;;;;;;6186917;23;19997;-33
2022/11/23 00:23:09;;;;;;;34.80;13.85;;;;;;;;;;6186723;23;20021;-33
2022/11/23 00:25:35;;;;;;;23.55;12.13;;;;;;;;;;6187023;23;20012;-32
2022/11/23 00:28:00;;;;;;;24.45;12.75;;;;;;;;;;6186993;23;20361;-33
2022/11/23 00:30:25;;;;;;;26.10;12.98;;;;;;;;;;6186912;23;19993;-33
2022/11/23 00:32:51;;;;;;;26.63;13.07;;;;;;;;;;6160434;23;19993;-33
2022/11/23 00:35:16;;;;;;;24.48;13.00;;;;;;;;;;6186726;23;20004;-33
2022/11/23 00:37:41;;;;;;;28.27;14.05;;;;;;;;;;6186746;23;19993;-33
2022/11/23 00:40:07;;;;;;;23.85;12.80;;;;;;;;;;6186795;23;20001;-33
2022/11/23 00:42:32;;;;;;;25.27;13.45;;;;;;;;;;6186884;23;19993;-33
2022/11/23 00:44:57;;;;;;;27.25;14.18;;;;;;;;;;6186500;23;20032;-33
2022/11/23 00:47:22;;;;;;;28.45;14.48;;;;;;;;;;6186933;23;19997;-32
2022/11/23 00:49:47;;;;;;;25.52;14.13;;;;;;;;;;6186931;23;20004;-33
2022/11/23 00:52:13;;;;;;;24.92;13.80;;;;;;;;;;6186785;23;20048;-33
2022/11/23 00:54:38;;;;;;;25.83;14.02;;;;;;;;;;6186555;23;20064;-33
2022/11/23 00:57:03;;;;;;;26.23;13.02;;;;;;;;;;6160322;23;20002;-33
2022/11/23 00:59:28;;;;;;;28.35;13.27;;;;;;;;;;6186507;23;20421;-33
2022/11/23 01:01:54;;;;;;;22.65;13.05;;;;;;;;;;6186712;23;19997;-32
2022/11/23 01:04:19;;;;;;;27.98;12.98;;;;;;;;;;6186357;23;19993;-33
2022/11/23 01:06:44;;;;;;;26.83;13.73;;;;;;;;;;6160413;23;20052;-33
2022/11/23 01:09:12;;;;;;;22.48;13.00;;;;;;;;;;6186521;23;19997;-33
2022/11/23 01:11:37;;;;;;;24.83;13.63;;;;;;;;;;6186549;23;19997;-33
2022/11/23 01:14:03;;;;;;;27.48;13.90;;;;;;;;;;6186115;23;20087;-33
2022/11/23 01:16:32;;;;;;;24.67;12.68;;;;;;;;;;6186253;23;20333;-32
2022/11/23 01:19:00;;;;;;;22.40;13.52;;;;;;;;;;6186729;23;20016;-32
2022/11/23 01:21:26;;;;;;;25.40;13.95;;;;;;;;;;6186543;23;20407;-32
2022/11/23 01:23:52;;;;;;;22.48;12.73;;;;;;;;;;6186074;23;20452;-32
2022/11/23 01:26:17;;;;;;;25.75;13.65;;;;;;;;;;6186481;23;20017;-33
2022/11/23 01:28:42;;;;;;;24.08;13.40;;;;;;;;;;6185889;23;20001;-32
2022/11/23 01:31:09;;;;;;;25.80;13.05;;;;;;;;;;6186467;23;20305;-32
2022/11/23 01:33:35;;;;;;;25.40;13.23;;;;;;;;;;6186357;23;19993;-32
2022/11/23 01:36:07;;;;;;;24.73;14.23;;;;;;;;;;6186534;23;20065;-32
2022/11/23 01:38:32;;;;;;;21.77;12.25;;;;;;;;;;6186265;23;19997;-32
2022/11/23 01:40:57;;;;;;;23.60;12.63;;;;;;;;;;6186343;23;20361;-33
2022/11/23 01:43:23;;;;;;;22.35;11.98;;;;;;;;;;6186077;23;20001;-33
2022/11/23 01:46:00;;;;;;;23.98;12.25;;;;;;;;;;6185732;23;20035;-33
2022/11/23 01:48:46;;;;;;;23.23;12.60;;;;;;;;;;6186260;23;19993;-32
2022/11/23 01:51:13;;;;;;;26.02;12.13;;;;;;;;;;6184895;23;20056;-33
2022/11/23 01:53:39;;;;;;;23.10;12.35;;;;;;;;;;6159641;23;20377;-33
2022/11/23 01:56:05;;;;;;;24.75;12.63;;;;;;;;;;6186266;23;20013;-32
2022/11/23 01:58:32;;;;;;;23.77;12.60;;;;;;;;;;6159633;23;20064;-33
2022/11/23 02:00:58;;;;;;;24.55;13.20;;;;;;;;;;6185590;23;20365;-33
2022/11/23 02:03:23;;;;;;;22.83;12.48;;;;;;;;;;6185962;23;20076;-33
2022/11/23 02:05:53;;;;;;;20.92;11.75;;;;;;;;;;6185931;23;20014;-33
2022/11/23 02:08:19;;;;;;;23.80;12.05;;;;;;;;;;6185951;23;20000;-33
2022/11/23 02:10:44;;;;;;;22.60;13.10;;;;;;;;;;6186083;23;19989;-33
2022/11/23 02:13:10;;;;;;;24.98;13.35;;;;;;;;;;6185720;23;20072;-32
2022/11/23 02:15:36;;;;;;;23.63;13.07;;;;;;;;;;6185810;23;20020;-33
2022/11/23 02:18:03;;;;;;;23.98;11.88;;;;;;;;;;6185540;23;20068;-33
2022/11/23 02:20:29;;;;;;;24.52;13.90;;;;;;;;;;6159508;23;20405;-33
2022/11/23 02:23:03;;;;;;;26.23;14.30;;;;;;;;;;6185863;23;20000;-33
2022/11/23 02:25:44;;;;;;;24.60;13.88;;;;;;;;;;6185766;23;20005;-33
2022/11/23 02:28:18;;;;;;;24.08;13.82;;;;;;;;;;6185625;23;20448;-33
2022/11/23 02:30:45;;;;;;;26.80;12.93;;;;;;;;;;6159581;23;19989;-33
2022/11/23 02:33:11;;;;;;;26.13;14.48;;;;;;;;;;6185741;23;19997;-33
2022/11/23 02:35:46;;;;;;;26.52;13.25;;;;;;;;;;6185970;23;20628;-33
2022/11/23 02:38:11;;;;;;;27.70;14.23;;;;;;;;;;6185708;23;19997;-32
2022/11/23 02:40:37;;;;;;;24.08;12.88;;;;;;;;;;6185798;23;20080;-32
2022/11/23 02:43:02;;;;;;;26.08;13.63;;;;;;;;;;6185704;23;19997;-33
2022/11/23 02:45:40;;;;;;;24.20;13.02;;;;;;;;;;6185592;23;20036;-33
2022/11/23 02:48:05;;;;;;;20.70;12.13;;;;;;;;;;6185492;23;19993;-33
2022/11/23 02:50:30;;;;;;;21.95;12.27;;;;;;;;;;6185624;23;20004;-33
2022/11/23 02:52:56;;;;;;;22.27;12.45;;;;;;;;;;6185565;23;20464;-33
2022/11/23 02:55:21;;;;;;;26.27;11.98;;;;;;;;;;6185294;23;19993;-32
2022/11/23 02:57:46;;;;;;;21.85;12.57;;;;;;;;;;6186059;23;20001;-33
2022/11/23 03:00:12;;;;;;;20.45;11.75;;;;;;;;;;6185121;23;19997;-33
2022/11/23 03:02:37;;;;;;;21.35;12.00;;;;;;;;;;6185614;23;20028;-32
2022/11/23 03:05:02;;;;;;;19.42;10.77;;;;;;;;;;6185478;23;20421;-32
2022/11/23 03:07:28;;;;;;;20.25;11.55;;;;;;;;;;6185132;23;20358;-32
2022/11/23 03:09:53;;;;;;;21.58;11.82;;;;;;;;;;6185509;23;19997;-33
2022/11/23 03:12:18;;;;;;;22.27;12.45;;;;;;;;;;6159172;23;20405;-33
2022/11/23 03:14:43;;;;;;;19.95;11.35;;;;;;;;;;6185363;23;20068;-33
2022/11/23 03:17:09;;;;;;;20.65;11.90;;;;;;;;;;6185304;23;20071;-32
2022/11/23 03:19:34;;;;;;;19.83;11.75;;;;;;;;;;6185263;23;19989;-33
2022/11/23 03:21:59;;;;;;;20.35;10.73;;;;;;;;;;6185395;23;20038;-33
2022/11/23 03:24:24;;;;;;;19.73;10.82;;;;;;;;;;6185053;23;20081;-32
2022/11/23 03:26:50;;;;;;;18.33;10.90;;;;;;;;;;6185225;23;19997;-32
2022/11/23 03:29:15;;;;;;;21.65;11.65;;;;;;;;;;6184858;23;19997;-33
2022/11/23 03:31:41;;;;;;;21.67;11.55;;;;;;;;;;6184783;23;19993;-33
2022/11/23 03:34:06;;;;;;;23.80;11.63;;;;;;;;;;6184732;23;19997;-33
2022/11/23 03:36:31;;;;;;;22.70;13.32;;;;;;;;;;6185170;23;20025;-33
2022/11/23 03:38:56;;;;;;;26.48;14.07;;;;;;;;;;6185340;23;20001;-33
2022/11/23 03:41:22;;;;;;;48.42;22.60;;;;;;;;;;6185269;23;20001;-32
2022/11/23 03:43:47;;;;;;;31.70;15.40;;;;;;;;;;6185171;23;20421;-32
2022/11/23 03:46:12;;;;;;;20.15;11.23;;;;;;;;;;6185073;23;20004;-32
2022/11/23 03:48:37;;;;;;;19.45;10.60;;;;;;;;;;6185136;23;20068;-33
2022/11/23 03:51:03;;;;;;;27.48;14.98;;;;;;;;;;6184798;23;20000;-33
2022/11/23 03:53:28;;;;;;;30.13;15.50;;;;;;;;;;6184934;23;19997;-32
2022/11/23 03:55:57;;;;;;;27.08;13.63;;;;;;;;;;6184670;23;19997;-32
2022/11/23 03:58:22;;;;;;;23.73;11.45;;;;;;;;;;6184821;23;20001;-32
2022/11/23 04:00:47;;;;;;;19.55;10.68;;;;;;;;;;6184946;23;20386;-33
2022/11/23 04:03:12;;;;;;;23.83;10.63;;;;;;;;;;6184673;23;20021;-32
2022/11/23 04:05:38;;;;;;;22.88;11.00;;;;;;;;;;6185046;23;20012;-32
2022/11/23 04:08:03;;;;;;;19.63;10.77;;;;;;;;;;6185023;23;20321;-33
2022/11/23 04:10:28;;;;;;;18.45;10.20;;;;;;;;;;6184472;23;20005;-32
2022/11/23 04:12:54;;;;;;;21.55;12.15;;;;;;;;;;6184818;23;20020;-33
2022/11/23 04:15:19;;;;;;;22.30;12.80;;;;;;;;;;6184705;23;20036;-33
2022/11/23 04:17:44;;;;;;;20.00;11.32;;;;;;;;;;6184728;23;19997;-32
2022/11/23 04:20:10;;;;;;;24.63;10.98;;;;;;;;;;6184850;23;19993;-33
2022/11/23 04:22:35;;;;;;;26.33;17.63;;;;;;;;;;6184801;23;20008;-33
2022/11/23 04:25:00;;;;;;;18.55;10.50;;;;;;;;;;6184720;23;20091;-32
2022/11/23 04:27:26;;;;;;;16.55;10.20;;;;;;;;;;6184909;23;20020;-32
2022/11/23 04:29:51;;;;;;;16.98;9.55;;;;;;;;;;6184103;23;19993;-32
2022/11/23 04:32:16;;;;;;;17.17;9.85;;;;;;;;;;6184739;23;20028;-33
2022/11/23 04:34:41;;;;;;;18.23;10.45;;;;;;;;;;6184836;23;20040;-32
2022/11/23 04:37:06;;;;;;;17.85;10.00;;;;;;;;;;6184664;23;20001;-33
2022/11/23 04:39:32;;;;;;;17.67;10.38;;;;;;;;;;6184801;23;20362;-32
2022/11/23 04:41:57;;;;;;;19.25;9.27;;;;;;;;;;6184607;23;20446;-33
2022/11/23 04:44:22;;;;;;;23.55;9.82;;;;;;;;;;6184670;23;20294;-33
2022/11/23 04:46:49;;;;;;;14.98;9.32;;;;;;;;;;6184762;23;19997;-32
2022/11/23 04:49:14;;;;;;;19.50;9.98;;;;;;;;;;6184744;23;19993;-33
2022/11/23 04:51:39;;;;;;;16.58;9.98;;;;;;;;;;6184876;23;20088;-32
2022/11/23 04:54:04;;;;;;;17.48;10.07;;;;;;;;;;6184588;23;20000;-32
2022/11/23 04:56:30;;;;;;;16.35;10.23;;;;;;;;;;6184508;23;19997;-32
2022/11/23 04:58:55;;;;;;;16.80;9.10;;;;;;;;;;6184302;23;20001;-33
2022/11/23 05:01:20;;;;;;;17.80;9.90;;;;;;;;;;6184886;23;20409;-32
2022/11/23 05:03:46;;;;;;;18.27;10.55;;;;;;;;;;6184939;23;19993;-32
2022/11/23 05:06:11;;;;;;;20.73;10.00;;;;;;;;;;6159979;23;20021;-33
2022/11/23 05:08:36;;;;;;;20.15;10.10;;;;;;;;;;6186570;23;20170;-33
2022/11/23 05:11:01;;;;;;;17.25;9.55;;;;;;;;;;6186580;23;20076;-32
2022/11/23 05:13:27;;;;;;;22.70;10.25;;;;;;;;;;6186339;23;20001;-34
2022/11/23 05:15:52;;;;;;;19.13;9.68;;;;;;;;;;6186073;23;20017;-34
2022/11/23 05:18:17;;;;;;;16.80;10.15;;;;;;;;;;6185928;23;20001;-32
2022/11/23 05:20:43;;;;;;;16.02;10.50;;;;;;;;;;6186347;23;20055;-32
2022/11/23 05:23:08;;;;;;;15.20;9.63;;;;;;;;;;6186545;23;19989;-32
2022/11/23 05:25:34;;;;;;;16.58;9.43;;;;;;;;;;6186282;23;20016;-32
2022/11/23 05:27:59;;;;;;;17.58;9.77;;;;;;;;;;6186322;23;20004;-33
2022/11/23 05:30:24;;;;;;;17.55;9.80;;;;;;;;;;6186631;23;19997;-32
2022/11/23 05:32:50;;;;;;;16.55;9.00;;;;;;;;;;6186349;23;20414;-33
2022/11/23 05:35:15;;;;;;;17.38;9.32;;;;;;;;;;6186517;23;20000;-33
2022/11/23 05:37:41;;;;;;;16.10;9.60;;;;;;;;;;6186153;23;19993;-32
2022/11/23 05:40:06;;;;;;;17.38;10.35;;;;;;;;;;6186268;23;20314;-32
2022/11/23 05:42:31;;;;;;;15.63;9.27;;;;;;;;;;6186205;23;19993;-32
2022/11/23 05:44:57;;;;;;;18.48;10.20;;;;;;;;;;6186148;23;20009;-32
2022/11/23 05:47:22;;;;;;;19.42;9.73;;;;;;;;;;6159376;23;19993;-33
2022/11/23 05:49:48;;;;;;;15.15;9.05;;;;;;;;;;6186249;23;20008;-33
2022/11/23 05:52:13;;;;;;;17.27;10.65;;;;;;;;;;6186021;23;20081;-33
2022/11/23 05:54:38;;;;;;;16.95;9.07;;;;;;;;;;6159668;23;20373;-33
2022/11/23 05:57:04;;;;;;;20.70;10.35;;;;;;;;;;6185654;23;20412;-33
2022/11/23 05:59:29;;;;;;;16.20;9.75;;;;;;;;;;6185954;23;20005;-33
2022/11/23 06:01:54;;;;;;;17.70;10.70;;;;;;;;;;6185971;23;20069;-33
2022/11/23 06:04:19;;;;;;;16.45;10.50;;;;;;;;;;6185566;23;20068;-33
2022/11/23 06:06:45;;;;;;;19.88;10.15;;;;;;;;;;6185703;23;19997;-33
2022/11/23 06:09:10;;;;;;;15.68;9.45;;;;;;;;;;6185828;23;20316;-33
2022/11/23 06:11:35;;;;;;;16.33;9.45;;;;;;;;;;6185835;23;19997;-33
2022/11/23 06:14:01;;;;;;;16.38;9.50;;;;;;;;;;6185686;23;20079;-33
2022/11/23 06:16:26;;;;;;;19.60;10.48;;;;;;;;;;6185557;23;20017;-33
2022/11/23 06:18:51;;;;;;;20.05;10.10;;;;;;;;;;6185727;23;19993;-33
2022/11/23 06:21:16;;;;;;;17.67;9.55;;;;;;;;;;6185803;23;20028;-33
2022/11/23 06:23:42;;;;;;;19.15;11.30;;;;;;;;;;6185818;23;20001;-33
2022/11/23 06:26:07;;;;;;;19.65;11.77;;;;;;;;;;6185645;23;20326;-33
2022/11/23 06:28:35;;;;;;;18.63;10.02;;;;;;;;;;6185695;23;20076;-33
2022/11/23 06:31:01;;;;;;;17.92;10.70;;;;;;;;;;6185726;23;19997;-33
2022/11/23 06:33:26;;;;;;;17.58;10.55;;;;;;;;;;6185618;23;19997;-33
2022/11/23 06:35:58;;;;;;;18.65;10.77;;;;;;;;;;6185826;23;20092;-33
2022/11/23 06:38:24;;;;;;;19.13;10.88;;;;;;;;;;6184406;23;20008;-33
2022/11/23 06:40:49;;;;;;;21.95;11.38;;;;;;;;;;6185287;23;20433;-33
2022/11/23 06:43:14;;;;;;;18.35;10.80;;;;;;;;;;6185140;23;20481;-33
2022/11/23 06:45:39;;;;;;;20.05;10.30;;;;;;;;;;6184332;23;20052;-33
2022/11/23 06:48:05;;;;;;;23.85;11.40;;;;;;;;;;6185541;23;20421;-33
2022/11/23 06:50:30;;;;;;;24.30;11.60;;;;;;;;;;6185546;23;20108;-34
2022/11/23 06:52:56;;;;;;;20.23;11.68;;;;;;;;;;6185321;23;19989;-33
2022/11/23 06:55:22;;;;;;;19.05;11.07;;;;;;;;;;6183762;23;20076;-33
2022/11/23 06:57:48;;;;;;;21.08;11.27;;;;;;;;;;6181861;23;20425;-34
2022/11/23 07:00:13;;;;;;;26.00;12.65;;;;;;;;;;6181046;23;19997;-34
2022/11/23 07:02:39;;;;;;;19.95;11.18;;;;;;;;;;6183170;23;20005;-31
2022/11/23 07:05:04;;;;;;;18.98;10.55;;;;;;;;;;6182209;23;20095;-34
2022/11/23 07:07:30;;;;;;;19.80;11.75;;;;;;;;;;6181506;23;20013;-33
2022/11/23 07:09:55;;;;;;;17.88;11.05;;;;;;;;;;6181123;23;20001;-32
2022/11/23 07:12:20;;;;;;;18.40;10.52;;;;;;;;;;6182976;23;20024;-33
2022/11/23 07:14:46;;;;;;;17.13;10.45;;;;;;;;;;6156173;23;20004;-32
2022/11/23 07:17:11;;;;;;;17.17;10.77;;;;;;;;;;6183680;23;20017;-34
2022/11/23 07:19:36;;;;;;;21.92;10.95;;;;;;;;;;6184262;23;20068;-33
2022/11/23 07:22:02;;;;;;;20.42;10.98;;;;;;;;;;6184461;23;20001;-32
2022/11/23 07:24:27;;;;;;;19.85;10.57;;;;;;;;;;6158736;23;20001;-33
2022/11/23 07:26:52;;;;;;;18.90;10.18;;;;;;;;;;6184229;23;20440;-33
2022/11/23 07:29:18;;;;;;;18.65;10.48;;;;;;;;;;6183793;23;19997;-33
2022/11/23 07:31:43;;;;;;;21.15;10.35;;;;;;;;;;6184712;23;19997;-33
2022/11/23 07:34:09;;;;;;;19.42;10.52;;;;;;;;;;6181773;23;20150;-33
2022/11/23 07:36:35;;;;;;;16.77;10.07;;;;;;;;;;6183799;23;20447;-33
2022/11/23 07:39:00;;;;;;;23.63;10.05;;;;;;;;;;6183384;23;20064;-33
2022/11/23 07:41:26;;;;;;;17.00;10.02;;;;;;;;;;6184192;23;20405;-33
2022/11/23 07:43:51;;;;;;;19.88;10.50;;;;;;;;;;6182612;23;20471;-34
2022/11/23 07:46:17;;;;;;;25.02;12.15;;;;;;;;;;6182888;23;20016;-34
2022/11/23 07:48:42;;;;;;;18.92;10.77;;;;;;;;;;6182621;23;20020;-34
2022/11/23 07:51:07;;;;;;;20.00;11.27;;;;;;;;;;6183589;23;20032;-35
2022/11/23 07:53:34;;;;;;;53.78;29.45;;;;;;;;;;6181333;23;20001;-33
2022/11/23 07:56:00;;;;;;;161.88;93.15;;;;;;;;;;6181632;23;20048;-33
2022/11/23 07:58:25;;;;;;;449.48;223.05;;;;;;;;;;6180847;23;20001;-33
2022/11/23 08:00:52;;;;;;;461.25;229.43;;;;;;;;;;6182591;23;20023;-33
2022/11/23 08:03:17;;;;;;;324.50;203.13;;;;;;;;;;6183486;23;20348;-31
2022/11/23 08:05:42;;;;;;;509.48;233.98;;;;;;;;;;6181815;23;20451;-32
2022/11/23 08:08:08;;;;;;;370.83;210.85;;;;;;;;;;6181705;23;20004;-33
2022/11/23 08:10:33;;;;;;;386.92;205.63;;;;;;;;;;6182078;23;19997;-32
2022/11/23 08:12:59;;;;;;;276.02;201.90;;;;;;;;;;6181333;23;20001;-32
2022/11/23 08:15:28;;;;;;;156.25;130.90;;;;;;;;;;6181927;23;20016;-32
2022/11/23 08:18:03;;;;;;;299.58;212.05;;;;;;;;;;6181345;23;20013;-32
2022/11/23 08:20:29;;;;;;;352.67;239.80;;;;;;;;;;6181256;23;20017;-34
2022/11/23 08:22:55;;;;;;;335.23;206.55;;;;;;;;;;6181649;23;19996;-33
2022/11/23 08:25:21;;;;;;;368.67;195.80;;;;;;;;;;6181802;23;20013;-33
2022/11/23 08:27:46;;;;;;;391.95;166.88;;;;;;;;;;6182596;23;19997;-32
2022/11/23 08:30:12;;;;;;;434.95;221.18;;;;;;;;;;6181772;23;20429;-33
2022/11/23 08:32:37;;;;;;;497.40;236.57;;;;;;;;;;6182034;23;19997;-32
2022/11/23 08:35:02;;;;;;;453.73;243.93;;;;;;;;;;6181336;23;20373;-32
2022/11/23 08:37:27;;;;;;;545.72;164.38;;;;;;;;;;6180313;23;19997;-32
2022/11/23 08:39:53;;;;;;;591.22;249.98;;;;;;;;;;6181641;23;20480;-32
2022/11/23 08:42:18;;;;;;;563.55;257.33;;;;;;;;;;6185452;23;20004;-32
2022/11/23 08:44:43;;;;;;;422.58;220.68;;;;;;;;;;6184683;23;19997;-33
2022/11/23 08:47:09;;;;;;;473.98;242.27;;;;;;;;;;6185811;23;20004;-32
2022/11/23 08:49:34;;;;;;;413.30;214.65;;;;;;;;;;6184986;23;20003;-33
2022/11/23 08:51:59;;;;;;;505.42;240.40;;;;;;;;;;6182672;23;20578;-32
2022/11/23 08:54:25;;;;;;;494.25;241.50;;;;;;;;;;6181629;23;20040;-33
2022/11/23 08:56:51;;;;;;;15.57;8.93;;;;;;;;;;6184289;23;20409;-36
2022/11/23 08:59:16;;;;;;;17.02;9.18;;;;;;;;;;6185995;23;19993;-34
2022/11/23 09:01:42;;;;;;;17.08;8.85;;;;;;;;;;6159116;23;20324;-35
2022/11/23 09:04:07;;;;;;;14.48;8.40;;;;;;;;;;6158085;23;20405;-34
2022/11/23 09:06:33;;;;;;;11.85;7.72;;;;;;;;;;6184600;23;20009;-34
2022/11/23 09:08:58;;;;;;;12.85;7.57;;;;;;;;;;6185079;23;19997;-34
2022/11/23 09:11:25;;;;;;;16.25;8.05;;;;;;;;;;6186456;23;20004;-34
2022/11/23 09:13:51;;;;;;;11.90;7.65;;;;;;;;;;6184800;23;20068;-34
2022/11/23 09:16:16;;;;;;;15.18;7.20;;;;;;;;;;6184628;23;20028;-34
2022/11/23 09:18:41;;;;;;;11.48;7.65;;;;;;;;;;6182359;23;19993;-34
2022/11/23 09:21:06;;;;;;;26.02;12.95;;;;;;;;;;6183570;23;20056;-32
2022/11/23 09:23:32;;;;;;;13.52;8.25;;;;;;;;;;6180228;23;19993;-33
2022/11/23 09:25:58;;;;;;;11.30;7.30;;;;;;;;;;6180108;23;20020;-33
2022/11/23 09:28:26;;;;;;;12.35;7.57;;;;;;;;;;6182322;23;19989;-32
2022/11/23 09:30:52;;;;;;;15.25;8.75;;;;;;;;;;6182115;23;20048;-32
2022/11/23 09:33:17;;;;;;;17.35;8.35;;;;;;;;;;6177576;23;20350;-33
2022/11/23 09:35:42;;;;;;;12.00;7.47;;;;;;;;;;6182523;23;20460;-33
2022/11/23 09:38:08;;;;;;;12.10;7.53;;;;;;;;;;6182228;23;20349;-32
2022/11/23 09:40:36;;;;;;;14.32;7.88;;;;;;;;;;6181231;23;20008;-32
2022/11/23 09:43:16;;;;;;;15.52;8.65;;;;;;;;;;6180959;23;19999;-32
2022/11/23 09:45:47;;;;;;;15.32;8.50;;;;;;;;;;6178057;23;20083;-33
2022/11/23 09:48:32;;;;;;;14.52;8.30;;;;;;;;;;6178019;23;20001;-34
2022/11/23 09:51:04;;;;;;;11.13;7.20;;;;;;;;;;6178633;23;20072;-32
2022/11/23 09:53:59;;;;;;;13.43;7.57;;;;;;;;;;6178952;23;20005;-34
2022/11/23 09:56:26;;;;;;;11.95;7.40;;;;;;;;;;6120222;23;20008;-33
2022/11/23 09:58:54;;;;;;;11.38;7.00;;;;;;;;;;6153774;23;19997;-33
2022/11/23 10:01:20;;;;;;;14.00;8.15;;;;;;;;;;6180702;23;20097;-34
2022/11/23 10:03:45;;;;;;;12.77;7.53;;;;;;;;;;6179834;23;20024;-34
2022/11/23 10:06:18;;;;;;;13.25;7.80;;;;;;;;;;6179889;23;20016;-34
2022/11/23 10:08:47;;;;;;;14.75;7.93;;;;;;;;;;6181018;23;20004;-32
2022/11/23 10:11:18;;;;;;;12.00;8.27;;;;;;;;;;6182510;23;20028;-34
2022/11/23 10:13:49;;;;;;;11.23;7.68;;;;;;;;;;6154871;23;20016;-33
2022/11/23 10:16:20;;;;;;;11.82;7.63;;;;;;;;;;6183042;23;20020;-33
2022/11/23 10:18:45;;;;;;;11.75;7.15;;;;;;;;;;6183636;23;20167;-33
2022/11/23 10:21:29;;;;;;;14.32;8.10;;;;;;;;;;6184230;23;20075;-33
2022/11/23 10:23:54;;;;;;;12.90;7.95;;;;;;;;;;6183450;23;19997;-33
2022/11/23 10:26:23;;;;;;;13.35;8.30;;;;;;;;;;6183507;23;20013;-34
2022/11/23 10:28:49;;;;;;;14.27;8.57;;;;;;;;;;6155876;23;19993;-32
2022/11/23 10:31:21;;;;;;;15.88;8.68;;;;;;;;;;6182199;23;19999;-32
2022/11/23 10:33:53;;;;;;;15.55;8.73;;;;;;;;;;6183053;23;20001;-32
2022/11/23 10:36:18;;;;;;;14.25;8.60;;;;;;;;;;6157126;23;20374;-33
2022/11/23 10:38:46;;;;;;;15.80;9.93;;;;;;;;;;6184525;23;20088;-33
2022/11/23 10:41:12;;;;;;;15.30;9.10;;;;;;;;;;6184009;23;19989;-32
2022/11/23 10:43:44;;;;;;;16.00;8.88;;;;;;;;;;6183212;23;20028;-32
2022/11/23 10:46:23;;;;;;;17.02;9.55;;;;;;;;;;6182010;23;20333;-32
2022/11/23 10:48:50;;;;;;;17.13;9.40;;;;;;;;;;6183200;23;19997;-33
2022/11/23 10:51:20;;;;;;;16.95;9.20;;;;;;;;;;6182299;23;20215;-32
2022/11/23 10:53:50;;;;;;;15.27;8.95;;;;;;;;;;6183423;23;20008;-33
2022/11/23 10:56:15;;;;;;;17.15;8.68;;;;;;;;;;6182913;23;19993;-33
2022/11/23 10:58:44;;;;;;;14.82;8.50;;;;;;;;;;6183942;23;20077;-33
2022/11/23 11:01:14;;;;;;;17.58;10.60;;;;;;;;;;6182055;23;20420;-33
2022/11/23 11:03:39;;;;;;;14.18;8.98;;;;;;;;;;6155821;23;20409;-33
2022/11/23 11:06:05;;;;;;;14.70;8.98;;;;;;;;;;6181703;23;20028;-33
2022/11/23 11:08:32;;;;;;;20.40;10.65;;;;;;;;;;6182079;23;20026;-33
2022/11/23 11:11:00;;;;;;;17.15;10.07;;;;;;;;;;6182471;23;20000;-33
2022/11/23 11:13:42;;;;;;;15.30;9.48;;;;;;;;;;6182538;23;19993;-33
2022/11/23 11:16:29;;;;;;;14.82;9.80;;;;;;;;;;6179762;23;20023;-34
2022/11/23 11:18:55;;;;;;;14.02;8.30;;;;;;;;;;6181373;23;20430;-38
2022/11/23 11:21:32;;;;;;;14.55;8.93;;;;;;;;;;6182233;23;20000;-33
2022/11/23 11:24:01;;;;;;;17.35;8.80;;;;;;;;;;6180464;23;20012;-34
2022/11/23 11:26:26;;;;;;;;;;;;;;;;;;6180777;23;20484;-33
2022/11/23 11:28:53;;;;;;;17.83;8.40;;;;;;;;;;6180815;23;19904;-33
2022/11/23 11:31:24;;;;;;;17.73;9.35;;;;;;;;;;6179643;23;20081;-34
2022/11/23 11:33:56;;;;;;;15.85;9.07;;;;;;;;;;6180479;23;20515;-33
2022/11/23 11:36:22;;;;;;;16.23;9.23;;;;;;;;;;6179186;23;20016;-33
2022/11/23 11:38:51;;;;;;;16.13;9.88;;;;;;;;;;6182072;23;20051;-32
2022/11/23 11:41:23;;;;;;;15.50;8.90;;;;;;;;;;6184163;23;19989;-33
2022/11/23 11:43:50;;;;;;;16.23;9.65;;;;;;;;;;6183033;23;19993;-33
2022/11/23 11:46:20;;;;;;;15.52;9.52;;;;;;;;;;6182303;23;20129;-32
2022/11/23 11:48:48;;;;;;;17.50;8.68;;;;;;;;;;6183104;23;19989;-33
2022/11/23 11:51:20;;;;;;;12.48;8.25;;;;;;;;;;6156208;23;20361;-34
2022/11/23 11:53:54;;;;;;;18.42;9.60;;;;;;;;;;6181681;23;20000;-34
2022/11/23 11:56:19;;;;;;;15.38;9.00;;;;;;;;;;6181963;23;20004;-34
2022/11/23 11:58:50;;;;;;;17.63;9.38;;;;;;;;;;6157254;23;20432;-35
2022/11/23 12:01:16;;;;;;;12.90;8.23;;;;;;;;;;6184367;23;20001;-33
2022/11/23 12:03:43;;;;;;;13.77;8.90;;;;;;;;;;6183034;23;20421;-34
2022/11/23 12:06:37;;;;;;;14.35;7.97;;;;;;;;;;6181156;23;20015;-34
2022/11/23 12:09:09;;;;;;;16.80;8.90;;;;;;;;;;6149562;23;19997;-35
2022/11/23 12:11:35;;;;;;;17.38;9.38;;;;;;;;;;6183088;23;20025;-34
2022/11/23 12:14:02;;;;;;;15.85;8.93;;;;;;;;;;6181955;23;20000;-34
2022/11/23 12:16:33;;;;;;;17.58;9.15;;;;;;;;;;6182488;23;20109;-33
2022/11/23 12:18:58;;;;;;;17.02;9.15;;;;;;;;;;6184366;23;19993;-34
2022/11/23 12:21:48;;;;;;;16.25;9.63;;;;;;;;;;6184708;23;20082;-35
2022/11/23 12:24:20;;;;;;;15.98;9.13;;;;;;;;;;6184194;23;20080;-34
2022/11/23 12:26:50;;;;;;;16.60;9.57;;;;;;;;;;6183600;23;20040;-34
2022/11/23 12:29:34;;;;;;;16.83;9.52;;;;;;;;;;6183361;23;20008;-34
2022/11/23 12:32:06;;;;;;;19.83;10.13;;;;;;;;;;6183619;23;19993;-35
2022/11/23 12:34:40;;;;;;;14.75;8.80;;;;;;;;;;6180217;23;20031;-33
2022/11/23 12:37:18;;;;;;;16.42;9.88;;;;;;;;;;6181590;23;20004;-34
2022/11/23 12:39:53;;;;;;;19.42;9.70;;;;;;;;;;6181656;23;20008;-34
2022/11/23 12:42:18;;;;;;;19.23;9.43;;;;;;;;;;6182926;23;20060;-34
2022/11/23 12:44:58;;;;;;;17.80;9.73;;;;;;;;;;6182781;23;20000;-34
2022/11/23 12:47:23;;;;;;;15.73;8.63;;;;;;;;;;6184250;23;20048;-34
2022/11/23 12:49:50;;;;;;;20.63;10.67;;;;;;;;;;6185117;23;20476;-35
2022/11/23 12:52:34;;;;;;;27.02;11.48;;;;;;;;;;6186068;23;20203;-35
2022/11/23 12:55:14;;;;;;;17.23;9.07;;;;;;;;;;6185088;23;20004;-34
2022/11/23 12:58:06;;;;;;;13.00;8.10;;;;;;;;;;6185841;23;20109;-34
2022/11/23 13:00:42;;;;;;;16.67;9.82;;;;;;;;;;6129029;23;20059;-33
2022/11/23 13:03:34;;;;;;;17.38;9.00;;;;;;;;;;6185540;23;20063;-33
2022/11/23 13:06:05;;;;;;;16.50;8.65;;;;;;;;;;6128356;23;20062;-33
2022/11/23 13:08:37;;;;;;;19.10;8.50;;;;;;;;;;6185728;23;20013;-33
2022/11/23 13:11:03;;;;;;;19.00;9.02;;;;;;;;;;6185581;23;20001;-33
2022/11/23 13:13:28;;;;;;;14.23;8.02;;;;;;;;;;6184451;23;20421;-33
2022/11/23 13:16:15;;;;;;;16.08;8.77;;;;;;;;;;6185208;23;20035;-33
2022/11/23 13:19:13;;;;;;;14.57;8.30;;;;;;;;;;6185651;23;20413;-32
2022/11/23 13:21:39;;;;;;;13.82;8.18;;;;;;;;;;6103496;23;20321;-33
2022/11/23 13:24:25;;;;;;;15.63;8.50;;;;;;;;;;6184636;23;20000;-35
2022/11/23 13:27:13;;;;;;;15.02;8.32;;;;;;;;;;6183785;23;20128;-34
2022/11/23 13:29:48;;;;;;;14.43;8.43;;;;;;;;;;6165471;23;20056;-34
2022/11/23 13:32:31;;;;;;;14.38;7.25;;;;;;;;;;6185241;23;20007;-34
2022/11/23 13:34:57;;;;;;;11.57;7.97;;;;;;;;;;6184851;23;19993;-33
2022/11/23 13:37:23;;;;;;;12.95;8.18;;;;;;;;;;6184932;23;20001;-34
2022/11/23 13:39:57;;;;;;;14.13;8.07;;;;;;;;;;6159253;23;20064;-34
2022/11/23 13:42:26;;;;;;;12.10;6.95;;;;;;;;;;6185289;23;20076;-34
2022/11/23 13:45:18;;;;;;;17.38;8.23;;;;;;;;;;6184837;23;19997;-33
2022/11/23 13:48:02;;;;;;;14.50;7.90;;;;;;;;;;6177655;23;20020;-33
2022/11/23 13:50:27;;;;;;;15.93;8.27;;;;;;;;;;6185292;23;20021;-34
2022/11/23 13:52:53;;;;;;;14.30;7.63;;;;;;;;;;6185505;23;20001;-33
2022/11/23 13:55:28;;;;;;;13.75;8.85;;;;;;;;;;6184366;23;20350;-33
2022/11/23 13:58:19;;;;;;;14.80;7.72;;;;;;;;;;6185616;23;20067;-33
2022/11/23 14:00:49;;;;;;;16.23;9.02;;;;;;;;;;6125802;23;20005;-34
2022/11/23 14:03:33;;;;;;;14.18;9.18;;;;;;;;;;6182213;23;19996;-35
2022/11/23 14:06:00;;;;;;;27.75;17.70;;;;;;;;;;6182659;23;20009;-31
2022/11/23 14:08:25;;;;;;;16.52;9.27;;;;;;;;;;6184323;23;19997;-33
2022/11/23 14:10:52;;;;;;;14.55;8.73;;;;;;;;;;6184224;23;19993;-32
2022/11/23 14:13:23;;;;;;;15.40;8.55;;;;;;;;;;6181797;23;21602;-33
2022/11/23 14:15:58;;;;;;;18.95;9.57;;;;;;;;;;6182520;23;20375;-34
2022/11/23 14:18:39;;;;;;;15.93;8.13;;;;;;;;;;6182650;23;20005;-33
2022/11/23 14:21:18;;;;;;;20.63;10.05;;;;;;;;;;6181246;23;20042;-33
2022/11/23 14:24:01;;;;;;;17.25;10.52;;;;;;;;;;6183460;23;20008;-34
2022/11/23 14:26:29;;;;;;;21.48;9.43;;;;;;;;;;6182913;23;20467;-33